Time;durP1;ratioP1;P1;durP2;ratioP2;P2;SDS_P1;SDS_P2;PMS_P1;PMS_P2;Temp;Humidity;BMP_temperature;BMP_pressure;BME280_temperature;BME280_humidity;BME280_pressure;Samples;Min_cycle;Max_cycle;Signal;HPM_P1;HPM_P2
2022/12/02 00:02:31;;;;;;;24.60;16.70;;;1.90;99.90;;;;;;5000054;28;20525;-85
2022/12/02 00:05:20;;;;;;;25.02;16.73;;;1.90;99.90;;;;;;4972492;28;20219;-86
2022/12/02 00:07:48;;;;;;;26.25;19.02;;;2.20;99.90;;;;;;4991389;28;20199;-87
2022/12/02 00:10:30;;;;;;;29.23;18.45;;;2.20;99.90;;;;;;4967072;28;20514;-87
2022/12/02 00:13:39;;;;;;;22.60;16.60;;;2.10;99.90;;;;;;4994887;28;20229;-87
2022/12/02 00:16:21;;;;;;;24.10;16.55;;;2.00;99.90;;;;;;4998665;28;20253;-89
2022/12/02 00:18:49;;;;;;;22.95;15.18;;;1.90;99.90;;;;;;4979641;28;20186;-84
2022/12/02 00:21:17;;;;;;;24.63;17.15;;;1.80;99.90;;;;;;4972499;28;20246;-88
2022/12/02 00:23:50;;;;;;;25.55;18.23;;;1.80;99.90;;;;;;4990171;28;20207;-85
2022/12/02 00:26:17;;;;;;;23.10;17.42;;;1.80;99.90;;;;;;4970263;28;20233;-85
2022/12/02 00:28:44;;;;;;;25.17;18.00;;;1.80;99.90;;;;;;4979226;28;20204;-83
2022/12/02 00:31:11;;;;;;;29.05;18.13;;;1.80;99.90;;;;;;4948003;29;20208;-83
2022/12/02 00:33:42;;;;;;;21.30;15.10;;;1.90;99.90;;;;;;4973307;28;20255;-88
2022/12/02 00:36:09;;;;;;;24.20;16.13;;;1.90;99.90;;;;;;4971565;28;20235;-90
2022/12/02 00:38:36;;;;;;;25.73;16.65;;;1.80;99.90;;;;;;4983277;28;20456;-82
2022/12/02 00:41:03;;;;;;;22.38;15.80;;;1.90;99.90;;;;;;4993747;28;20206;-88
2022/12/02 00:46:31;;;;;;;19.60;13.45;;;1.70;99.90;;;;;;4975074;28;20221;-84
2022/12/02 00:49:03;;;;;;;21.00;15.00;;;1.70;99.90;;;;;;4945579;29;20214;-83
2022/12/02 00:51:30;;;;;;;20.33;13.60;;;1.70;99.90;;;;;;4930928;29;20215;-83
2022/12/02 00:53:57;;;;;;;23.13;15.98;;;1.80;99.90;;;;;;4977510;28;20214;-83
2022/12/02 00:56:29;;;;;;;19.30;15.10;;;1.80;99.90;;;;;;4981411;28;20203;-88
2022/12/02 00:58:56;;;;;;;25.00;16.98;;;1.80;99.90;;;;;;4993685;28;20237;-88
2022/12/02 01:01:24;;;;;;;23.83;16.13;;;2.70;99.90;;;;;;4982113;28;20448;-91
2022/12/02 01:03:52;;;;;;;22.08;15.77;;;1.70;99.90;;;;;;4976896;28;20361;-86
2022/12/02 01:06:20;;;;;;;25.98;17.20;;;2.40;99.90;;;;;;4988568;28;20232;-86
2022/12/02 01:08:48;;;;;;;23.33;16.90;;;1.80;99.90;;;;;;4979338;28;20199;-82
2022/12/02 01:11:15;;;;;;;24.80;17.60;;;3.20;99.90;;;;;;4980221;28;20228;-87
2022/12/02 01:13:43;;;;;;;29.13;18.48;;;2.30;99.90;;;;;;4976249;28;20282;-84
2022/12/02 01:16:10;;;;;;;26.23;18.30;;;1.70;99.90;;;;;;4984474;28;20238;-89
2022/12/02 01:18:37;;;;;;;27.52;18.67;;;2.20;99.90;;;;;;4987919;28;20203;-84
2022/12/02 01:21:09;;;;;;;30.05;20.17;;;2.40;99.90;;;;;;4987240;28;20204;-87
2022/12/02 01:23:37;;;;;;;26.83;20.10;;;1.80;99.90;;;;;;4981578;28;20206;-84
2022/12/02 01:26:04;;;;;;;30.75;18.40;;;3.00;99.90;;;;;;4994246;28;20198;-83
2022/12/02 01:28:32;;;;;;;37.70;19.90;;;1.70;99.90;;;;;;4980824;28;20215;-81
2022/12/02 01:30:59;;;;;;;24.45;18.23;;;1.90;99.90;;;;;;4983688;28;20315;-88
2022/12/02 01:33:26;;;;;;;25.52;18.63;;;1.70;99.90;;;;;;5003762;28;20214;-90
2022/12/02 01:35:53;;;;;;;26.40;19.60;;;1.70;99.90;;;;;;4976124;28;20234;-87
2022/12/02 01:38:20;;;;;;;32.03;18.65;;;2.00;99.90;;;;;;4976978;28;20266;-84
2022/12/02 01:40:47;;;;;;;32.63;20.50;;;1.60;99.90;;;;;;4984016;28;20544;-85
2022/12/02 01:43:15;;;;;;;29.52;17.92;;;1.60;99.90;;;;;;4990465;28;20199;-85
2022/12/02 01:45:45;;;;;;;23.38;16.13;;;1.50;99.90;;;;;;4988533;28;20219;-89
2022/12/02 01:48:12;;;;;;;30.42;19.05;;;1.60;99.90;;;;;;4972493;28;20238;-90
2022/12/02 01:50:58;;;;;;;25.52;17.27;;;1.50;99.90;;;;;;4982765;28;20208;-88
2022/12/02 01:53:25;;;;;;;32.25;19.67;;;2.80;99.90;;;;;;4969878;28;20255;-82
2022/12/02 01:55:55;;;;;;;34.17;20.40;;;1.50;99.90;;;;;;4987403;28;20230;-89
2022/12/02 01:58:26;;;;;;;29.60;17.25;;;2.70;99.90;;;;;;4985920;28;20254;-82
2022/12/02 02:00:54;;;;;;;30.45;19.52;;;1.60;99.90;;;;;;4976263;28;20234;-86
2022/12/02 02:03:21;;;;;;;31.80;19.65;;;1.50;99.90;;;;;;4982941;28;20281;-84
2022/12/02 02:05:49;;;;;;;33.45;18.40;;;1.50;99.90;;;;;;4983744;28;20243;-83
2022/12/02 02:08:18;;;;;;;27.83;19.65;;;2.50;99.90;;;;;;4991273;28;20282;-88
2022/12/02 02:10:48;;;;;;;32.70;20.73;;;1.50;99.90;;;;;;4964623;28;20204;-87
2022/12/02 02:13:16;;;;;;;30.13;18.48;;;2.00;99.90;;;;;;4984230;28;20221;-84
2022/12/02 02:15:44;;;;;;;26.60;18.63;;;1.60;99.90;;;;;;4974047;28;20238;-85
2022/12/02 02:18:14;;;;;;;26.17;19.85;;;2.20;99.90;;;;;;4988900;28;20214;-85
2022/12/02 02:20:49;;;;;;;31.65;19.23;;;1.50;99.90;;;;;;4976017;28;20233;-88
2022/12/02 02:23:24;;;;;;;26.35;18.95;;;1.40;99.90;;;;;;4967208;28;20199;-84
2022/12/02 02:25:55;;;;;;;27.92;17.02;;;1.40;99.90;;;;;;4978221;28;20194;-82
2022/12/02 02:28:23;;;;;;;28.05;17.83;;;1.40;99.90;;;;;;4988598;28;20206;-86
2022/12/02 02:30:54;;;;;;;20.75;14.25;;;1.40;99.90;;;;;;4992786;28;20246;-89
2022/12/02 02:33:48;;;;;;;22.25;15.98;;;2.00;99.90;;;;;;4986875;28;20207;-86
2022/12/02 02:36:15;;;;;;;24.63;16.20;;;1.40;99.90;;;;;;4972696;28;20230;-88
2022/12/02 02:38:43;;;;;;;20.67;13.85;;;1.30;99.90;;;;;;4972140;28;20219;-82
2022/12/02 02:41:10;;;;;;;19.83;13.50;;;1.50;99.90;;;;;;4957039;28;20450;-86
2022/12/02 02:43:38;;;;;;;21.20;14.75;;;1.00;99.90;;;;;;5003141;28;20213;-90
2022/12/02 02:46:07;;;;;;;21.80;15.45;;;2.10;99.90;;;;;;4982497;28;20207;-85
2022/12/02 02:48:35;;;;;;;21.70;14.50;;;1.70;99.90;;;;;;5007066;28;20205;-88
2022/12/02 02:51:02;;;;;;;24.02;15.30;;;2.10;99.90;;;;;;4981211;28;20221;-84
2022/12/02 02:53:31;;;;;;;23.48;14.48;;;1.50;99.90;;;;;;4981246;28;20202;-84
2022/12/02 02:56:00;;;;;;;23.77;15.45;;;1.50;99.90;;;;;;4966906;28;20235;-86
2022/12/02 02:58:28;;;;;;;26.42;15.10;;;2.40;99.90;;;;;;4983759;28;20246;-87
2022/12/02 03:01:15;;;;;;;21.48;15.27;;;1.40;99.90;;;;;;4983052;28;20226;-88
2022/12/02 03:03:49;;;;;;;21.65;15.80;;;1.80;99.90;;;;;;4965044;28;20243;-88
2022/12/02 03:06:16;;;;;;;22.85;15.15;;;1.50;99.90;;;;;;4965012;28;20217;-81
2022/12/02 03:08:46;;;;;;;16.85;13.00;;;1.40;99.90;;;;;;4994861;28;20398;-85
2022/12/02 03:11:14;;;;;;;22.30;14.43;;;1.40;99.90;;;;;;4992187;28;20198;-86
2022/12/02 03:13:43;;;;;;;19.52;13.75;;;2.50;99.90;;;;;;4962292;28;20218;-89
2022/12/02 03:16:13;;;;;;;22.77;14.38;;;1.50;99.90;;;;;;4968593;28;20223;-85
2022/12/02 03:18:41;;;;;;;22.50;15.38;;;1.90;99.90;;;;;;4980138;28;20229;-90
2022/12/02 03:21:09;;;;;;;19.23;13.57;;;2.00;99.90;;;;;;4979049;28;20204;-84
2022/12/02 03:23:37;;;;;;;18.65;13.25;;;1.40;99.90;;;;;;4966008;28;20224;-85
2022/12/02 03:26:07;;;;;;;20.40;14.20;;;1.30;99.90;;;;;;4966726;28;20215;-91
2022/12/02 03:28:35;;;;;;;15.55;11.75;;;1.20;99.90;;;;;;4965086;28;20212;-83
2022/12/02 03:31:02;;;;;;;23.33;15.95;;;1.30;99.90;;;;;;4995591;28;20225;-85
2022/12/02 03:33:29;;;;;;;20.58;13.65;;;1.30;99.90;;;;;;4993312;28;20221;-82
2022/12/02 03:36:01;;;;;;;19.17;13.75;;;1.80;99.90;;;;;;4994384;28;20262;-88
2022/12/02 03:38:31;;;;;;;19.95;13.43;;;1.60;99.90;;;;;;4998551;28;20190;-89
2022/12/02 03:41:01;;;;;;;23.45;14.70;;;1.30;99.90;;;;;;4983873;28;20204;-80
2022/12/02 03:43:28;;;;;;;24.25;14.60;;;1.20;99.90;;;;;;4978498;28;20261;-88
2022/12/02 03:45:55;;;;;;;19.58;13.43;;;2.40;99.90;;;;;;4991625;28;20226;-86
2022/12/02 03:48:24;;;;;;;19.25;13.93;;;2.20;99.90;;;;;;4983685;28;20242;-87
2022/12/02 03:50:53;;;;;;;25.58;15.30;;;1.10;99.90;;;;;;4978991;28;20214;-86
2022/12/02 03:53:21;;;;;;;19.75;12.77;;;1.80;99.90;;;;;;4991552;28;20258;-83
2022/12/02 03:55:49;;;;;;;21.27;13.73;;;1.10;99.90;;;;;;4975474;28;20230;-87
2022/12/02 03:58:16;;;;;;;20.70;14.85;;;1.90;99.90;;;;;;4983489;28;20562;-84
2022/12/02 04:00:46;;;;;;;21.25;13.65;;;1.30;99.90;;;;;;4978414;28;20219;-85
2022/12/02 04:03:13;;;;;;;23.98;14.60;;;1.20;99.90;;;;;;4967059;28;20207;-88
2022/12/02 04:05:40;;;;;;;22.05;14.90;;;1.20;99.90;;;;;;4963381;29;20203;-89
2022/12/02 04:08:14;;;;;;;23.60;16.33;;;1.10;99.90;;;;;;4982008;28;20203;-87
2022/12/02 04:10:41;;;;;;;24.27;16.00;;;1.10;99.90;;;;;;4981522;28;20207;-85
2022/12/02 04:13:09;;;;;;;27.90;19.23;;;1.10;99.90;;;;;;4989162;28;20206;-89
2022/12/02 04:15:37;;;;;;;29.70;19.20;;;2.10;99.90;;;;;;4984569;28;20302;-85
2022/12/02 04:18:04;;;;;;;30.17;17.75;;;1.10;99.90;;;;;;4995160;28;20206;-90
2022/12/02 04:20:34;;;;;;;23.35;12.63;;;2.10;99.90;;;;;;4993126;28;20198;-94
2022/12/02 04:23:01;;;;;;;16.80;11.65;;;2.10;99.90;;;;;;4986388;28;20203;-85
2022/12/02 04:25:28;;;;;;;24.20;15.40;;;1.20;99.90;;;;;;4983412;28;20734;-83
2022/12/02 04:27:58;;;;;;;23.40;14.98;;;1.20;99.90;;;;;;4979207;28;20215;-82
2022/12/02 04:30:25;;;;;;;24.65;16.05;;;1.10;99.90;;;;;;4976134;28;20213;-88
2022/12/02 04:32:52;;;;;;;20.77;14.60;;;1.60;99.90;;;;;;4981271;28;20270;-87
2022/12/02 04:35:19;;;;;;;25.27;14.88;;;1.10;99.90;;;;;;4964084;28;20563;-85
2022/12/02 04:37:48;;;;;;;22.30;14.68;;;2.30;99.90;;;;;;4959009;28;20223;-87
2022/12/02 04:40:14;;;;;;;24.52;16.10;;;1.20;99.90;;;;;;4965947;28;20361;-86
2022/12/02 04:42:42;;;;;;;22.90;16.42;;;1.20;99.90;;;;;;4975434;28;20261;-85
2022/12/02 04:45:09;;;;;;;27.52;15.90;;;1.30;99.90;;;;;;4985614;28;20218;-82
2022/12/02 04:47:36;;;;;;;23.35;14.43;;;1.10;99.90;;;;;;4969967;28;20418;-83
2022/12/02 04:50:05;;;;;;;21.75;14.35;;;1.20;99.90;;;;;;4961341;29;20211;-85
2022/12/02 04:52:31;;;;;;;26.73;17.48;;;1.10;99.90;;;;;;4963046;28;20211;-82
2022/12/02 04:54:59;;;;;;;23.35;14.65;;;1.10;99.90;;;;;;4989943;28;20278;-82
2022/12/02 04:57:26;;;;;;;25.17;17.98;;;1.30;99.90;;;;;;4995087;28;20198;-88
2022/12/02 04:59:57;;;;;;;29.70;18.00;;;1.20;99.90;;;;;;4982886;28;20226;-81
2022/12/02 05:02:27;;;;;;;30.13;17.35;;;1.20;99.90;;;;;;4978049;28;20484;-86
2022/12/02 05:04:54;;;;;;;25.63;15.68;;;1.20;99.90;;;;;;4984653;28;20207;-87
2022/12/02 05:07:21;;;;;;;24.08;16.35;;;1.20;99.90;;;;;;4969131;28;20196;-83
2022/12/02 05:09:48;;;;;;;26.45;15.80;;;1.30;99.90;;;;;;4988886;28;20222;-88
2022/12/02 05:12:16;;;;;;;22.98;15.25;;;1.30;99.90;;;;;;4976509;28;20201;-89
2022/12/02 05:14:43;;;;;;;25.98;17.88;;;1.20;99.90;;;;;;4994312;28;20214;-85
2022/12/02 05:17:14;;;;;;;20.70;14.43;;;1.20;99.90;;;;;;4994868;28;20249;-82
2022/12/02 05:19:42;;;;;;;23.75;14.82;;;1.30;99.90;;;;;;4977704;28;20198;-89
2022/12/02 05:22:09;;;;;;;25.70;15.40;;;1.30;99.90;;;;;;4997577;28;20269;-88
2022/12/02 05:24:36;;;;;;;25.08;14.90;;;2.30;99.90;;;;;;4994552;28;20269;-88
2022/12/02 05:27:03;;;;;;;28.08;17.30;;;1.20;99.90;;;;;;4994241;28;20191;-91
2022/12/02 05:29:30;;;;;;;28.00;16.90;;;1.30;99.90;;;;;;4987730;28;20203;-86
2022/12/02 05:31:58;;;;;;;24.85;16.73;;;1.20;99.90;;;;;;4989377;28;20209;-88
2022/12/02 05:34:24;;;;;;;22.38;15.20;;;1.40;99.90;;;;;;4983027;28;20208;-89
2022/12/02 05:36:51;;;;;;;29.10;15.48;;;1.30;99.90;;;;;;4961781;28;20219;-87
2022/12/02 05:39:18;;;;;;;24.88;15.23;;;1.20;99.90;;;;;;4984514;28;20235;-89
2022/12/02 05:41:47;;;;;;;22.70;15.65;;;1.20;99.90;;;;;;4985913;28;20211;-89
2022/12/02 05:44:19;;;;;;;25.17;15.45;;;1.20;99.90;;;;;;4979916;28;20306;-88
2022/12/02 05:46:47;;;;;;;27.17;15.27;;;1.10;99.90;;;;;;4998510;28;20203;-87
2022/12/02 05:49:20;;;;;;;24.33;14.98;;;1.20;99.90;;;;;;5000347;28;20199;-81
2022/12/02 05:51:53;;;;;;;25.52;16.40;;;1.70;99.90;;;;;;4997544;28;20187;-82
2022/12/02 05:54:23;;;;;;;23.40;13.90;;;1.30;99.90;;;;;;4987270;28;20245;-89
2022/12/02 05:56:51;;;;;;;29.40;15.45;;;1.20;99.90;;;;;;4957973;28;20285;-88
2022/12/02 05:59:23;;;;;;;24.13;15.77;;;1.10;99.90;;;;;;4988113;28;20211;-87
2022/12/02 06:01:56;;;;;;;23.33;17.05;;;1.10;99.90;;;;;;4995107;28;20206;-89
2022/12/02 06:04:34;;;;;;;27.73;17.45;;;1.10;99.90;;;;;;4975373;28;20286;-83
2022/12/02 06:07:38;;;;;;;26.70;18.20;;;1.10;99.90;;;;;;4975048;29;20199;-84
2022/12/02 06:10:29;;;;;;;33.30;18.65;;;1.10;99.90;;;;;;4981767;28;20281;-83
2022/12/02 06:13:03;;;;;;;26.50;16.80;;;1.10;99.90;;;;;;4986935;28;20419;-86
2022/12/02 06:15:36;;;;;;;31.30;19.02;;;1.10;99.90;;;;;;4983185;28;20222;-87
2022/12/02 06:18:12;;;;;;;27.58;18.00;;;1.00;99.90;;;;;;4977908;28;20431;-84
2022/12/02 06:20:42;;;;;;;27.70;17.90;;;1.10;99.90;;;;;;4973055;28;20266;-86
2022/12/02 06:23:20;;;;;;;23.60;16.70;;;1.20;99.90;;;;;;4994093;28;20202;-91
2022/12/02 06:25:50;;;;;;;25.60;17.65;;;1.20;99.90;;;;;;4997100;28;20222;-87
2022/12/02 06:28:33;;;;;;;28.75;16.10;;;1.30;99.90;;;;;;4978257;28;20213;-88
2022/12/02 06:31:09;;;;;;;24.70;16.20;;;1.80;99.90;;;;;;4968229;28;20206;-88
2022/12/02 06:33:39;;;;;;;25.25;17.45;;;1.20;99.90;;;;;;4971658;28;20210;-82
2022/12/02 06:36:17;;;;;;;25.33;17.48;;;1.20;99.90;;;;;;4979138;28;20289;-87
2022/12/02 06:38:55;;;;;;;25.73;17.15;;;1.10;99.90;;;;;;4976985;28;20194;-86
2022/12/02 06:41:27;;;;;;;23.52;16.13;;;1.20;99.90;;;;;;4968248;29;20210;-84
2022/12/02 06:46:48;;;;;;;21.40;14.60;;;1.20;99.90;;;;;;4992138;28;20579;-84
2022/12/02 06:49:19;;;;;;;25.13;15.57;;;1.30;99.90;;;;;;4974171;28;20219;-82
2022/12/02 06:51:54;;;;;;;21.50;14.00;;;1.30;99.90;;;;;;4974816;28;20214;-85
2022/12/02 06:54:25;;;;;;;21.70;15.32;;;1.30;99.90;;;;;;4994470;28;20198;-83
2022/12/02 06:56:54;;;;;;;27.58;18.17;;;1.20;99.90;;;;;;4998346;28;20226;-87
2022/12/02 06:59:22;;;;;;;26.40;15.63;;;1.30;99.90;;;;;;4977115;28;20219;-85
2022/12/02 07:01:56;;;;;;;25.60;16.25;;;1.20;99.90;;;;;;4976806;28;20215;-84
2022/12/02 07:04:37;;;;;;;20.35;15.73;;;1.20;99.90;;;;;;4977386;28;20203;-86
2022/12/02 07:07:27;;;;;;;25.15;15.52;;;1.20;99.90;;;;;;4997911;28;20260;-85
2022/12/02 07:09:57;;;;;;;26.35;16.65;;;1.20;99.90;;;;;;4975062;28;20218;-87
2022/12/02 07:12:36;;;;;;;27.73;17.25;;;1.10;99.90;;;;;;4980503;28;20207;-88
2022/12/02 07:15:23;;;;;;;26.15;17.25;;;1.00;99.90;;;;;;4994514;28;20195;-88
2022/12/02 07:17:50;;;;;;;22.95;16.63;;;1.20;99.90;;;;;;4981563;28;20214;-90
2022/12/02 07:20:32;;;;;;;28.80;16.63;;;1.40;99.90;;;;;;4982889;28;20537;-86
2022/12/02 07:23:04;;;;;;;33.20;19.90;;;1.30;99.90;;;;;;4961889;29;20534;-81
2022/12/02 07:25:37;;;;;;;25.42;17.25;;;1.20;99.90;;;;;;4958884;28;20299;-83
2022/12/02 07:28:35;;;;;;;23.95;16.60;;;1.20;99.90;;;;;;4965808;28;20210;-85
2022/12/02 07:31:18;;;;;;;24.52;16.77;;;1.20;99.90;;;;;;4963905;28;20202;-91
2022/12/02 07:33:47;;;;;;;25.00;17.48;;;1.30;99.90;;;;;;4974431;28;20213;-84
2022/12/02 07:36:14;;;;;;;29.70;18.13;;;1.20;99.90;;;;;;4982653;28;20577;-87
2022/12/02 07:38:50;;;;;;;28.50;18.92;;;1.20;99.90;;;;;;4969122;28;20207;-88
2022/12/02 07:41:34;;;;;;;24.45;16.92;;;2.20;99.90;;;;;;4983487;28;20241;-86
2022/12/02 07:44:04;;;;;;;27.45;17.50;;;1.10;99.90;;;;;;4993938;28;20634;-86
2022/12/02 07:46:31;;;;;;;27.13;14.93;;;1.10;99.90;;;;;;4985253;28;20569;-81
2022/12/02 07:48:58;;;;;;;24.23;16.00;;;1.20;99.90;;;;;;4972518;28;20203;-85
2022/12/02 07:51:27;;;;;;;26.23;17.48;;;1.20;99.90;;;;;;4970189;28;20211;-92
2022/12/02 07:53:55;;;;;;;24.02;15.07;;;1.30;99.90;;;;;;4977275;28;20203;-82
2022/12/02 07:56:22;;;;;;;27.35;18.30;;;2.10;99.90;;;;;;4989151;28;20562;-82
2022/12/02 07:58:49;;;;;;;26.73;17.05;;;1.30;99.90;;;;;;4981319;28;20281;-84
2022/12/02 08:01:36;;;;;;;32.28;18.38;;;1.20;99.90;;;;;;4972631;28;20206;-83
2022/12/02 08:04:04;;;;;;;26.48;16.67;;;1.70;99.90;;;;;;4976022;28;20214;-87
2022/12/02 08:06:31;;;;;;;29.90;17.55;;;1.40;99.90;;;;;;4968467;28;20209;-82
2022/12/02 08:09:05;;;;;;;29.15;19.55;;;1.40;99.90;;;;;;4971696;28;20277;-81
2022/12/02 08:11:33;;;;;;;29.75;18.98;;;2.60;99.90;;;;;;4984195;28;20207;-88
2022/12/02 08:14:00;;;;;;;27.23;17.15;;;1.40;99.90;;;;;;4982799;28;20260;-83
2022/12/02 08:16:33;;;;;;;26.65;18.77;;;1.40;99.90;;;;;;4972260;28;20247;-85
2022/12/02 08:19:00;;;;;;;26.58;17.98;;;1.40;99.90;;;;;;4988336;28;20207;-81
2022/12/02 08:21:29;;;;;;;27.13;18.27;;;1.30;99.90;;;;;;4980899;28;20207;-85
2022/12/02 08:23:56;;;;;;;25.15;17.23;;;1.30;99.90;;;;;;4990743;28;20209;-85
2022/12/02 08:26:24;;;;;;;26.05;16.30;;;1.30;99.90;;;;;;4972598;28;20266;-87
2022/12/02 08:28:51;;;;;;;26.15;18.10;;;1.40;99.90;;;;;;4983157;28;20215;-82
2022/12/02 08:31:21;;;;;;;31.13;18.83;;;1.20;99.90;;;;;;4958875;28;20222;-91
2022/12/02 08:33:48;;;;;;;24.05;18.23;;;1.10;99.90;;;;;;4990888;28;20214;-84
2022/12/02 08:36:16;;;;;;;26.67;17.55;;;1.90;99.90;;;;;;4977233;28;20254;-86
2022/12/02 08:38:44;;;;;;;28.48;17.02;;;2.20;99.90;;;;;;4990619;28;20221;-88
2022/12/02 08:41:17;;;;;;;26.73;17.65;;;1.70;99.90;;;;;;4972033;28;20203;-90
2022/12/02 08:43:46;;;;;;;29.25;15.45;;;2.00;99.90;;;;;;4987273;28;20227;-83
2022/12/02 08:46:14;;;;;;;29.77;19.27;;;2.10;99.90;;;;;;4973434;28;20229;-83
2022/12/02 08:48:41;;;;;;;26.48;16.75;;;1.20;99.90;;;;;;4987189;28;20206;-88
2022/12/02 08:51:08;;;;;;;28.48;16.98;;;1.20;99.90;;;;;;4979689;28;20233;-90
2022/12/02 08:53:38;;;;;;;27.23;18.73;;;2.50;99.90;;;;;;4988267;28;20259;-84
2022/12/02 08:56:10;;;;;;;21.08;14.35;;;0.70;99.90;;;;;;4992499;28;20208;-85
2022/12/02 08:58:39;;;;;;;32.05;19.38;;;1.80;99.90;;;;;;4983604;28;20215;-89
2022/12/02 09:01:07;;;;;;;29.77;18.80;;;2.10;99.90;;;;;;4997185;28;20195;-90
2022/12/02 09:03:34;;;;;;;26.92;17.98;;;1.90;99.90;;;;;;4986455;28;20214;-86
2022/12/02 09:06:01;;;;;;;28.40;16.88;;;1.30;99.90;;;;;;4988064;28;20203;-84
2022/12/02 09:08:28;;;;;;;31.63;17.70;;;1.30;99.90;;;;;;5002692;28;20217;-85
2022/12/02 09:10:56;;;;;;;32.78;16.80;;;1.20;99.90;;;;;;4983875;28;20265;-85
2022/12/02 09:13:24;;;;;;;27.60;15.80;;;1.30;99.90;;;;;;4983711;28;20217;-90
2022/12/02 09:15:51;;;;;;;26.92;15.57;;;1.30;99.90;;;;;;4977515;28;20286;-86
2022/12/02 09:18:19;;;;;;;22.05;15.02;;;1.20;99.90;;;;;;4989383;28;20257;-83
2022/12/02 09:20:47;;;;;;;22.80;17.25;;;1.70;99.90;;;;;;5006801;28;20235;-84
2022/12/02 09:23:15;;;;;;;26.65;15.50;;;1.30;99.90;;;;;;4965664;28;20219;-87
2022/12/02 09:25:41;;;;;;;27.13;16.30;;;1.40;99.90;;;;;;5004110;28;20284;-84
2022/12/02 09:28:08;;;;;;;23.77;15.27;;;1.30;99.90;;;;;;4976653;28;20211;-87
2022/12/02 09:30:35;;;;;;;24.02;15.98;;;1.20;99.90;;;;;;4992988;28;20209;-83
2022/12/02 09:33:03;;;;;;;22.77;15.82;;;2.60;99.90;;;;;;4974071;28;20210;-89
2022/12/02 09:35:32;;;;;;;23.48;15.95;;;2.40;99.90;;;;;;4989085;28;20351;-87
2022/12/02 09:38:01;;;;;;;29.10;17.63;;;1.10;99.90;;;;;;4990983;28;20225;-86
2022/12/02 09:40:30;;;;;;;24.00;14.68;;;1.60;99.90;;;;;;4972497;28;20207;-84
2022/12/02 09:42:59;;;;;;;24.15;14.95;;;1.10;99.90;;;;;;4980524;28;20211;-86
2022/12/02 09:45:26;;;;;;;19.95;13.93;;;1.20;99.90;;;;;;4992919;28;20224;-88
2022/12/02 09:47:54;;;;;;;21.58;14.32;;;1.10;99.90;;;;;;4991085;28;20215;-85
2022/12/02 09:50:21;;;;;;;20.75;14.75;;;1.20;99.90;;;;;;4987256;28;20215;-89
2022/12/02 09:52:49;;;;;;;22.77;16.65;;;1.20;99.90;;;;;;4977606;28;20203;-85
2022/12/02 09:55:19;;;;;;;21.55;14.05;;;1.50;99.90;;;;;;4980710;28;20249;-87
2022/12/02 09:57:49;;;;;;;21.63;14.55;;;1.30;99.90;;;;;;4987849;28;20298;-85
2022/12/02 10:00:21;;;;;;;19.27;12.48;;;1.20;99.90;;;;;;4989377;28;20506;-84
2022/12/02 10:02:50;;;;;;;21.17;13.88;;;1.10;99.90;;;;;;4990415;28;20290;-82
2022/12/02 10:05:22;;;;;;;20.83;14.00;;;1.10;99.90;;;;;;4978387;28;20205;-83
2022/12/02 10:07:53;;;;;;;18.88;13.88;;;1.20;99.90;;;;;;4979166;28;20282;-89
2022/12/02 10:10:24;;;;;;;18.80;13.63;;;1.30;99.90;;;;;;4990994;28;20244;-88
2022/12/02 10:12:52;;;;;;;22.20;15.05;;;1.30;99.90;;;;;;4986146;28;20196;-90
2022/12/02 10:15:30;;;;;;;14.65;11.68;;;1.40;99.90;;;;;;4984313;28;20216;-87
2022/12/02 10:18:09;;;;;;;19.23;13.70;;;1.30;99.90;;;;;;4982334;28;20219;-84
2022/12/02 10:20:36;;;;;;;17.85;12.57;;;1.30;99.90;;;;;;4983750;28;20198;-86
2022/12/02 10:23:08;;;;;;;24.70;16.50;;;1.30;99.90;;;;;;4985903;28;20230;-84
2022/12/02 10:25:36;;;;;;;19.52;14.82;;;1.10;99.90;;;;;;4999297;28;20202;-86
2022/12/02 10:28:30;;;;;;;21.33;13.95;;;2.00;99.90;;;;;;4990060;28;20206;-86
2022/12/02 10:31:09;;;;;;;16.08;11.93;;;1.20;99.90;;;;;;4985266;28;20223;-82
2022/12/02 10:33:39;;;;;;;17.52;13.48;;;1.20;99.90;;;;;;4980467;28;20267;-82
2022/12/02 10:36:06;;;;;;;22.67;14.32;;;1.20;99.90;;;;;;4964875;28;20270;-81
2022/12/02 10:38:42;;;;;;;20.90;14.88;;;1.20;99.90;;;;;;4994958;28;20253;-90
2022/12/02 10:41:23;;;;;;;23.48;13.82;;;1.60;99.90;;;;;;4967866;28;20203;-83
2022/12/02 10:43:52;;;;;;;20.55;14.30;;;2.30;99.90;;;;;;4982546;28;20218;-87
2022/12/02 10:46:21;;;;;;;25.98;15.27;;;1.90;99.90;;;;;;4973998;28;20270;-86
2022/12/02 10:48:48;;;;;;;17.35;12.90;;;2.20;99.90;;;;;;4964181;28;20579;-86
2022/12/02 10:51:20;;;;;;;23.42;15.02;;;1.70;99.90;;;;;;4983130;28;20230;-89
2022/12/02 10:53:56;;;;;;;21.63;14.65;;;1.30;99.90;;;;;;4980259;28;20281;-84
2022/12/02 10:56:25;;;;;;;22.63;15.35;;;1.20;99.90;;;;;;4983375;28;20217;-92
2022/12/02 10:58:54;;;;;;;21.25;14.18;;;1.80;99.90;;;;;;4990739;28;20210;-81
2022/12/02 11:01:21;;;;;;;19.20;14.48;;;1.20;99.90;;;;;;4993468;28;20246;-85
2022/12/02 11:03:48;;;;;;;22.02;14.52;;;1.10;99.90;;;;;;4971803;28;20252;-85
2022/12/02 11:06:22;;;;;;;20.63;14.02;;;1.00;99.90;;;;;;4995265;28;20565;-85
2022/12/02 11:08:51;;;;;;;23.25;13.73;;;1.00;99.90;;;;;;4983048;28;20218;-86
2022/12/02 11:11:40;;;;;;;25.33;13.73;;;1.50;99.90;;;;;;4973117;28;20195;-82
2022/12/02 11:14:12;;;;;;;24.13;14.05;;;1.90;99.90;;;;;;4976146;28;20475;-84
2022/12/02 11:16:41;;;;;;;23.58;14.07;;;1.20;99.90;;;;;;4973034;28;20332;-90
2022/12/02 11:19:32;;;;;;;25.23;15.45;;;1.30;99.90;;;;;;4964804;28;20222;-89
2022/12/02 11:21:59;;;;;;;19.02;12.75;;;2.00;99.90;;;;;;4978839;28;20195;-91
2022/12/02 11:24:27;;;;;;;28.40;15.15;;;1.40;99.90;;;;;;4989326;28;20196;-85
2022/12/02 11:27:02;;;;;;;21.90;15.30;;;1.00;99.90;;;;;;4991641;28;20237;-82
2022/12/02 11:29:38;;;;;;;19.98;14.77;;;1.00;99.90;;;;;;4964187;28;20239;-86
2022/12/02 11:32:16;;;;;;;17.42;12.93;;;1.10;99.90;;;;;;4949010;29;20219;-85
2022/12/02 11:34:52;;;;;;;21.75;14.95;;;1.20;99.90;;;;;;4964842;29;20200;-87
2022/12/02 11:37:44;;;;;;;24.77;13.25;;;2.10;99.90;;;;;;4989464;28;20217;-81
2022/12/02 11:40:17;;;;;;;23.17;15.40;;;1.10;99.90;;;;;;4975640;28;20214;-85
2022/12/02 11:42:46;;;;;;;19.27;15.32;;;1.00;99.90;;;;;;4998997;28;20209;-84
2022/12/02 11:45:23;;;;;;;26.13;14.75;;;1.00;99.90;;;;;;4972748;28;20230;-84
2022/12/02 11:47:53;;;;;;;22.02;14.38;;;1.00;99.90;;;;;;4973548;28;20197;-86
2022/12/02 11:50:39;;;;;;;21.77;15.50;;;1.00;99.90;;;;;;4989935;28;20187;-84
2022/12/02 11:53:22;;;;;;;26.00;16.35;;;1.00;99.90;;;;;;4987820;28;20195;-87
2022/12/02 11:55:55;;;;;;;30.70;17.05;;;1.00;99.90;;;;;;4965360;28;20195;-86
2022/12/02 11:58:28;;;;;;;23.80;15.98;;;1.40;99.90;;;;;;4972871;28;20242;-84
2022/12/02 12:01:16;;;;;;;27.90;16.52;;;1.40;99.90;;;;;;4971400;28;20234;-83
2022/12/02 12:03:46;;;;;;;23.20;15.57;;;0.90;99.90;;;;;;4984049;28;20199;-84
2022/12/02 12:06:16;;;;;;;27.73;17.55;;;1.00;99.90;;;;;;4973177;28;20204;-87
2022/12/02 12:08:47;;;;;;;25.33;14.85;;;0.90;99.90;;;;;;4971170;28;20203;-82
2022/12/02 12:11:23;;;;;;;25.23;16.75;;;0.90;99.90;;;;;;4969110;28;20187;-86
2022/12/02 12:14:12;;;;;;;26.83;17.27;;;0.90;99.90;;;;;;4967973;28;20202;-84
2022/12/02 12:16:47;;;;;;;26.63;18.40;;;0.80;99.90;;;;;;4989020;28;20206;-85
2022/12/02 12:19:20;;;;;;;27.75;19.38;;;0.90;99.90;;;;;;4991563;28;20383;-82
2022/12/02 12:21:52;;;;;;;24.50;15.85;;;0.90;99.90;;;;;;4992531;28;20187;-86
2022/12/02 12:24:22;;;;;;;29.55;18.67;;;2.10;99.90;;;;;;4991541;28;20208;-85
2022/12/02 12:26:58;;;;;;;24.52;17.17;;;1.40;99.90;;;;;;4987017;23;20303;-83
2022/12/02 12:29:29;;;;;;;27.20;17.70;;;0.90;99.90;;;;;;4965085;28;20207;-86
2022/12/02 12:31:56;;;;;;;23.70;14.48;;;1.50;99.90;;;;;;4959898;29;20207;-84
2022/12/02 12:34:24;;;;;;;22.55;14.70;;;1.50;99.90;;;;;;4986494;28;20196;-85
2022/12/02 12:36:53;;;;;;;25.65;16.60;;;1.00;99.90;;;;;;5044553;23;20637;-87
2022/12/02 12:39:36;;;;;;;24.77;15.02;;;1.50;99.90;;;;;;4985220;28;20230;-85
2022/12/02 12:42:03;;;;;;;26.52;16.83;;;0.20;99.90;;;;;;4990449;28;20207;-83
2022/12/02 12:44:31;;;;;;;31.85;21.85;;;2.20;99.90;;;;;;4997711;28;20529;-85
2022/12/02 12:47:04;;;;;;;24.40;17.20;;;1.00;99.90;;;;;;4988591;28;20217;-82
2022/12/02 12:49:34;;;;;;;26.65;18.25;;;1.10;99.90;;;;;;5055001;23;21092;-90
2022/12/02 12:52:02;;;;;;;29.08;17.08;;;1.70;99.90;;;;;;4989272;28;20242;-87
2022/12/02 12:54:39;;;;;;;33.85;17.90;;;0.80;99.90;;;;;;4987502;28;20249;-83
2022/12/02 12:57:06;;;;;;;30.05;19.83;;;0.90;99.90;;;;;;4982874;28;20209;-84
2022/12/02 12:59:35;;;;;;;29.63;22.67;;;0.90;99.90;;;;;;5014303;28;20210;-85
2022/12/02 13:02:02;;;;;;;30.98;20.02;;;-0.70;99.90;;;;;;5014274;28;20202;-83